Time;durP1;ratioP1;P1;durP2;ratioP2;P2;SDS_P1;SDS_P2;PMS_P1;PMS_P2;Temp;Humidity;BMP_temperature;BMP_pressure;BME280_temperature;BME280_humidity;BME280_pressure;Samples;Min_cycle;Max_cycle;Signal;HPM_P1;HPM_P2
2023/12/15 00:07:01;;;;;;;105.35;76.38;;;;;;;21.94;53.86;101597.47;21253888;27;20311;-39
2023/12/15 00:17:04;;;;;;;97.47;68.18;;;;;;;21.93;53.68;101611.97;21255042;27;20211;-41
2023/12/15 00:27:06;;;;;;;85.95;59.70;;;;;;;21.93;53.12;101612.81;21253509;27;20308;-46
2023/12/15 00:37:10;;;;;;;73.35;51.22;;;;;;;21.93;53.41;101634.66;21245721;27;20648;-48
2023/12/15 00:47:11;;;;;;;68.97;48.83;;;;;;;21.93;53.23;101644.00;21234437;27;20244;-41
2023/12/15 00:57:14;;;;;;;59.63;43.58;;;;;;;21.93;53.59;101637.50;21165925;28;20693;-40
2023/12/15 01:07:16;;;;;;;53.75;39.30;;;;;;;21.91;53.43;101660.50;21138130;27;20222;-41
2023/12/15 01:17:19;;;;;;;49.83;36.55;;;;;;;21.94;53.91;101664.69;21129964;28;20210;-43
2023/12/15 01:27:21;;;;;;;43.92;33.03;;;;;;;21.93;53.43;101669.50;21135762;28;20220;-41
2023/12/15 01:37:24;;;;;;;41.00;29.90;;;;;;;21.94;53.41;101674.00;21140851;28;20194;-48
2023/12/15 01:47:26;;;;;;;37.38;27.67;;;;;;;21.96;53.46;101685.84;21137162;28;20232;-47
2023/12/15 01:57:29;;;;;;;38.17;27.38;;;;;;;21.95;53.24;101706.84;21107576;28;20289;-48
2023/12/15 02:07:31;;;;;;;34.30;23.70;;;;;;;21.95;53.06;101706.00;21105792;28;20308;-50
2023/12/15 02:17:34;;;;;;;28.90;21.08;;;;;;;21.93;53.26;101719.69;21108698;28;20640;-45
2023/12/15 02:27:37;;;;;;;28.73;20.00;;;;;;;21.91;53.43;101727.69;21121786;28;20351;-46
2023/12/15 02:37:38;;;;;;;25.75;17.88;;;;;;;21.94;52.96;101732.72;21124017;28;20287;-46
2023/12/15 02:47:41;;;;;;;108.07;77.57;;;;;;;21.96;54.25;101725.53;21144413;27;20316;-49
2023/12/15 02:57:43;;;;;;;203.80;147.13;;;;;;;22.12;53.75;101722.31;21202530;27;20193;-44
2023/12/15 03:07:46;;;;;;;173.80;125.85;;;;;;;22.03;54.14;101719.44;21206612;27;20309;-46
2023/12/15 03:17:48;;;;;;;157.73;113.60;;;;;;;21.99;54.43;101730.59;21128306;27;20220;-49
2023/12/15 03:27:51;;;;;;;135.57;99.28;;;;;;;22.00;53.57;101769.13;21214521;27;20585;-48
2023/12/15 03:37:52;;;;;;;272.88;197.05;;;;;;;21.96;54.19;101770.88;21198340;27;20305;-49
2023/12/15 03:47:56;;;;;;;299.75;224.77;;;;;;;21.96;54.25;101787.06;21198034;27;20640;-53
2023/12/15 03:57:57;;;;;;;276.73;201.23;;;;;;;22.15;54.12;101786.88;21281613;27;20486;-52
2023/12/15 04:08:00;;;;;;;244.63;174.48;;;;;;;22.22;54.15;101790.91;21275062;27;20296;-49
2023/12/15 04:18:04;;;;;;;217.27;154.75;;;;;;;22.23;53.80;101811.59;21251497;27;20577;-48
2023/12/15 04:28:07;;;;;;;196.32;139.10;;;;;;;22.22;53.65;101818.44;21272618;27;20306;-48
2023/12/15 04:38:09;;;;;;;169.30;121.93;;;;;;;22.22;53.48;101824.94;21249754;27;20201;-42
2023/12/15 04:48:12;;;;;;;161.38;114.72;;;;;;;22.19;53.16;101828.44;21267401;27;20716;-41
2023/12/15 04:58:13;;;;;;;322.23;241.63;;;;;;;22.17;53.56;101821.41;21205082;27;20205;-43
2023/12/15 05:08:16;;;;;;;300.75;221.98;;;;;;;22.18;53.45;101845.78;21205050;27;20257;-39
2023/12/15 05:18:18;;;;;;;265.45;196.25;;;;;;;22.14;53.47;101850.41;21210572;27;20308;-42
2023/12/15 05:28:22;;;;;;;250.27;179.15;;;;;;;22.13;53.09;101860.09;21186845;27;20217;-54
2023/12/15 05:38:24;;;;;;;432.92;316.95;;;;;;;22.09;53.68;101866.41;21148892;27;20204;-50
2023/12/15 05:48:27;;;;;;;400.52;291.65;;;;;;;22.07;54.03;101880.03;21172860;27;20307;-52
2023/12/15 05:58:28;;;;;;;363.50;266.55;;;;;;;22.06;54.03;101886.91;21187751;27;20206;-53
2023/12/15 06:08:31;;;;;;;324.02;234.50;;;;;;;22.08;53.91;101901.56;21223481;27;20335;-56
2023/12/15 06:18:33;;;;;;;395.83;281.83;;;;;;;22.07;53.57;101910.44;21176184;27;20198;-52
2023/12/15 06:28:36;;;;;;;530.88;380.98;;;;;;;22.09;54.31;101930.75;21211670;27;20654;-47
2023/12/15 06:38:39;;;;;;;470.40;343.05;;;;;;;22.10;54.26;101930.44;21213012;27;20288;-55
2023/12/15 06:48:42;;;;;;;382.13;275.48;;;;;;;22.03;52.50;101941.41;21207454;27;20515;-49
2023/12/15 06:58:44;;;;;;;228.93;149.30;;;;;;;21.59;50.55;101952.59;21205829;27;20277;-54
2023/12/15 07:08:50;;;;;;;327.42;232.02;;;;;;;21.82;50.02;101962.84;21200543;27;20217;-49
2023/12/15 07:18:52;;;;;;;356.45;253.02;;;;;;;22.27;49.96;101991.31;21222303;27;20209;-48
2023/12/15 07:28:55;;;;;;;329.55;233.07;;;;;;;22.39;50.62;101997.25;21253735;27;20225;-46
2023/12/15 07:38:56;;;;;;;302.05;217.98;;;;;;;22.45;50.43;101999.66;21229157;27;20491;-51
2023/12/15 07:48:59;;;;;;;290.85;208.15;;;;;;;22.51;51.00;102023.03;21237508;27;20224;-51
2023/12/15 07:59:01;;;;;;;285.63;196.55;;;;;;;22.50;51.59;102041.22;21220128;27;20194;-49
2023/12/15 08:09:04;;;;;;;263.38;180.32;;;;;;;22.53;52.25;102032.06;21214250;27;20222;-48
2023/12/15 08:19:08;;;;;;;244.15;168.45;;;;;;;22.54;51.99;102067.81;21236506;27;20205;-44
2023/12/15 08:29:11;;;;;;;234.20;162.73;;;;;;;22.54;53.00;102076.31;21219635;27;20210;-44
2023/12/15 08:39:13;;;;;;;372.92;283.33;;;;;;;22.59;53.30;102073.34;21162249;27;20224;-43
2023/12/15 08:49:16;;;;;;;317.58;230.30;;;;;;;22.14;57.32;102095.13;21259952;27;20221;-48
2023/12/15 08:59:18;;;;;;;271.65;193.38;;;;;;;22.05;58.49;102128.22;21261019;27;20203;-48
2023/12/15 09:09:23;;;;;;;245.32;171.20;;;;;;;22.03;59.19;102151.22;21260421;27;20263;-50
2023/12/15 09:19:26;;;;;;;211.93;145.45;;;;;;;22.08;59.41;102164.44;21265953;27;20275;-50
2023/12/15 09:29:31;;;;;;;146.63;101.82;;;;;;;21.45;57.25;102176.38;21219045;27;20240;-48
2023/12/15 09:39:33;;;;;;;125.43;85.60;;;;;;;21.79;59.07;102201.56;21224406;27;20263;-51
2023/12/15 09:49:37;;;;;;;104.18;70.93;;;;;;;21.85;59.39;102225.81;21265768;27;20317;-50
2023/12/15 09:59:41;;;;;;;89.28;61.67;;;;;;;21.92;59.86;102240.44;21159136;27;20567;-53
2023/12/15 10:09:45;;;;;;;80.38;55.65;;;;;;;21.91;60.49;102247.25;21254646;27;20300;-50
2023/12/15 10:19:47;;;;;;;65.85;47.30;;;;;;;21.97;61.03;102259.31;21257159;27;20296;-50
2023/12/15 10:29:50;;;;;;;60.58;41.65;;;;;;;21.90;61.62;102268.25;21272207;27;20228;-57
2023/12/15 10:39:54;;;;;;;49.47;35.67;;;;;;;21.93;61.28;102247.78;21234588;27;21481;-49
2023/12/15 10:49:58;;;;;;;45.70;32.63;;;;;;;21.95;61.90;102245.44;21243951;27;20232;-54
2023/12/15 11:00:02;;;;;;;53.13;35.33;;;;;;;21.61;59.36;102268.47;21227744;27;20287;-55
2023/12/15 11:10:08;;;;;;;47.83;30.50;;;;;;;22.15;59.33;102275.47;21210838;27;20909;-56
2023/12/15 11:20:13;;;;;;;44.40;29.02;;;;;;;21.41;58.74;102291.47;21231608;27;20244;-53
2023/12/15 11:30:30;;;;;;;38.63;26.10;;;;;;;21.26;59.20;102295.38;21194354;27;20232;-54
2023/12/15 11:40:32;;;;;;;32.35;23.60;;;;;;;21.20;60.13;102305.09;21219204;27;20297;-51
2023/12/15 11:50:35;;;;;;;29.27;20.90;;;;;;;21.28;60.37;102320.56;21243403;27;20221;-53
2023/12/15 12:00:38;;;;;;;40.88;27.42;;;;;;;21.36;57.46;102317.88;21226507;27;20199;-50
2023/12/15 12:10:42;;;;;;;33.58;23.35;;;;;;;21.96;55.46;102326.50;21242681;27;20224;-51
2023/12/15 12:20:44;;;;;;;33.30;21.92;;;;;;;21.95;55.42;102330.50;21128604;27;20333;-47
2023/12/15 12:30:48;;;;;;;37.95;23.17;;;;;;;21.87;56.25;102350.22;21199103;27;20283;-42
2023/12/15 12:40:50;;;;;;;34.20;21.27;;;;;;;21.86;55.30;102337.19;21206069;27;20226;-52
2023/12/15 12:50:53;;;;;;;30.45;21.33;;;;;;;21.81;55.02;102323.94;21228041;27;20328;-48
2023/12/15 13:00:55;;;;;;;33.33;20.25;;;;;;;21.77;55.00;102341.91;21239507;27;20241;-48
2023/12/15 13:10:58;;;;;;;27.65;19.10;;;;;;;21.75;54.71;102348.72;21221412;27;20220;-48
2023/12/15 13:21:00;;;;;;;28.73;18.98;;;;;;;21.75;54.59;102325.19;21210067;27;20288;-43
2023/12/15 13:31:05;;;;;;;25.55;17.73;;;;;;;21.70;55.69;102313.94;21209581;27;20308;-52
2023/12/15 13:41:06;;;;;;;25.77;17.45;;;;;;;20.93;59.08;102330.34;21213548;27;20214;-52
2023/12/15 13:51:10;;;;;;;22.70;15.63;;;;;;;20.81;59.83;102335.63;21232343;27;20520;-50
2023/12/15 14:01:11;;;;;;;22.73;14.50;;;;;;;20.83;59.48;102341.81;21245603;27;20281;-53
2023/12/15 14:11:14;;;;;;;31.67;15.90;;;;;;;21.12;59.33;102372.88;21249933;27;20673;-51
2023/12/15 14:21:16;;;;;;;22.17;13.50;;;;;;;20.95;60.09;102339.41;21222989;27;20345;-52
2023/12/15 14:31:20;;;;;;;17.58;12.68;;;;;;;21.22;59.31;102361.44;21242575;27;20684;-48
2023/12/15 14:41:22;;;;;;;142.70;90.72;;;;;;;21.94;57.25;102374.16;21196470;27;20213;-53
2023/12/15 14:51:25;;;;;;;121.50;79.85;;;;;;;22.31;55.87;102397.97;21196069;27;20561;-52
2023/12/15 15:01:27;;;;;;;101.05;65.50;;;;;;;22.45;54.99;102421.56;21212388;27;20228;-51
2023/12/15 15:11:30;;;;;;;78.03;52.80;;;;;;;21.65;59.34;102448.06;21213391;27;20217;-49
2023/12/15 15:21:32;;;;;;;100.13;62.97;;;;;;;21.58;58.89;102461.75;21219762;27;20202;-49
2023/12/15 15:31:35;;;;;;;145.98;93.82;;;;;;;21.60;59.91;102470.78;21217017;27;20225;-48
2023/12/15 15:41:37;;;;;;;125.65;81.55;;;;;;;21.92;59.47;102478.56;21212797;27;20324;-49
2023/12/15 15:51:40;;;;;;;111.55;71.22;;;;;;;22.23;58.16;102449.72;21229516;27;20228;-51
2023/12/15 16:01:43;;;;;;;124.63;85.10;;;;;;;22.27;57.91;102462.16;21247381;27;20644;-41
2023/12/15 16:11:46;;;;;;;180.43;119.88;;;;;;;22.35;58.07;102486.97;21236235;27;20691;-43
2023/12/15 16:21:48;;;;;;;149.63;103.13;;;;;;;22.39;58.43;102491.72;21184272;27;20726;-45
2023/12/15 16:31:53;;;;;;;129.20;86.18;;;;;;;22.31;58.35;102514.28;21251850;27;20213;-45
2023/12/15 16:41:55;;;;;;;227.07;149.05;;;;;;;22.44;58.82;102507.81;21183421;27;20229;-42
2023/12/15 16:51:58;;;;;;;189.18;126.35;;;;;;;22.46;58.75;102482.78;21169147;27;20228;-40
2023/12/15 17:02:00;;;;;;;278.55;193.48;;;;;;;22.52;58.95;102486.41;21235492;27;20203;-47
2023/12/15 17:12:04;;;;;;;279.98;198.93;;;;;;;22.44;58.58;102499.31;21228451;27;20217;-45
2023/12/15 17:22:06;;;;;;;229.65;153.77;;;;;;;22.41;58.29;102534.81;21214477;27;20699;-43
2023/12/15 17:32:09;;;;;;;134.02;89.60;;;;;;;22.22;56.50;102533.13;21151477;27;20590;-45
2023/12/15 17:42:12;;;;;;;108.55;72.90;;;;;;;22.44;56.69;102550.38;21173280;27;20224;-46
2023/12/15 17:52:15;;;;;;;108.32;73.18;;;;;;;22.44;57.00;102554.06;21244814;27;20235;-44
2023/12/15 18:02:17;;;;;;;228.00;150.93;;;;;;;22.42;57.94;102579.06;21264998;27;20509;-45
2023/12/15 18:12:20;;;;;;;178.10;121.20;;;;;;;22.49;58.11;102572.97;21233658;27;20307;-44
2023/12/15 18:22:22;;;;;;;145.82;100.20;;;;;;;22.32;58.63;102572.72;21233108;27;20193;-42
2023/12/15 18:32:25;;;;;;;301.02;202.07;;;;;;;22.42;58.25;102578.22;21228204;27;20292;-42
2023/12/15 18:42:28;;;;;;;276.55;178.13;;;;;;;22.52;59.10;102561.03;21204771;27;20304;-40
2023/12/15 18:52:32;;;;;;;225.93;146.48;;;;;;;22.46;59.44;102584.94;21250603;27;20235;-46
2023/12/15 19:02:34;;;;;;;306.92;213.55;;;;;;;22.54;60.03;102578.59;21250924;27;20472;-43
2023/12/15 19:12:37;;;;;;;297.25;205.80;;;;;;;22.62;60.59;102572.19;21272233;27;20643;-43
2023/12/15 19:22:41;;;;;;;259.45;178.02;;;;;;;22.66;60.77;102590.31;21263631;27;20200;-42
2023/12/15 19:32:44;;;;;;;210.90;142.55;;;;;;;22.70;59.99;102602.75;21231313;27;20216;-46
2023/12/15 19:42:46;;;;;;;194.00;132.52;;;;;;;22.69;60.20;102635.13;21243273;27;20304;-46
2023/12/15 19:52:49;;;;;;;214.88;149.23;;;;;;;22.78;60.45;102640.97;21182923;27;20235;-42
2023/12/15 20:02:51;;;;;;;189.23;130.23;;;;;;;22.89;60.27;102621.75;21169827;28;20542;-45
2023/12/15 20:12:54;;;;;;;153.52;106.18;;;;;;;22.76;60.48;102649.78;21141840;27;20249;-42
2023/12/15 20:22:56;;;;;;;137.65;94.80;;;;;;;22.83;59.80;102657.06;21148733;28;20611;-46
2023/12/15 20:32:59;;;;;;;146.77;101.85;;;;;;;23.16;58.21;102687.19;21149578;28;20248;-47
2023/12/15 20:43:01;;;;;;;140.43;99.75;;;;;;;23.27;57.57;102691.53;21144315;28;20210;-47
2023/12/15 20:53:04;;;;;;;138.27;98.03;;;;;;;23.33;57.03;102683.78;21210233;27;20770;-44
2023/12/15 21:03:09;;;;;;;132.95;92.95;;;;;;;23.33;56.35;102681.78;21209277;27;20201;-43
2023/12/15 21:13:15;;;;;;;199.02;139.40;;;;;;;23.03;58.09;102690.81;21207595;27;20224;-45
2023/12/15 21:23:17;;;;;;;227.10;158.48;;;;;;;23.25;56.79;102673.94;21236334;27;20208;-48
2023/12/15 21:33:20;;;;;;;201.27;141.80;;;;;;;22.96;55.87;102673.34;21212025;27;20304;-49
2023/12/15 21:43:22;;;;;;;200.20;140.55;;;;;;;22.52;56.87;102666.03;21218588;27;20556;-49
2023/12/15 21:53:25;;;;;;;187.23;133.57;;;;;;;22.41;56.92;102670.16;21247985;27;20311;-52
2023/12/15 22:03:27;;;;;;;166.80;119.25;;;;;;;22.31;56.86;102675.97;21222249;27;20205;-51
2023/12/15 22:13:30;;;;;;;156.23;111.10;;;;;;;22.24;56.68;102678.31;21245900;27;20668;-48
2023/12/15 22:23:31;;;;;;;145.88;106.03;;;;;;;22.17;56.68;102690.06;21226766;27;20578;-52
2023/12/15 22:33:34;;;;;;;139.07;100.72;;;;;;;22.08;56.41;102686.19;21231206;27;20305;-54
2023/12/15 22:43:37;;;;;;;131.60;95.32;;;;;;;22.03;56.51;102700.44;21238339;27;20241;-50
2023/12/15 22:53:40;;;;;;;123.45;88.88;;;;;;;21.97;56.62;102701.59;21260811;27;20320;-54
2023/12/15 23:03:42;;;;;;;121.10;86.10;;;;;;;21.99;55.90;102702.19;21246066;27;20296;-52
2023/12/15 23:13:45;;;;;;;193.20;132.60;;;;;;;21.95;56.18;102712.41;21240120;27;20232;-54
2023/12/15 23:23:47;;;;;;;199.70;139.95;;;;;;;21.92;56.21;102728.03;21220904;27;20288;-51
2023/12/15 23:33:50;;;;;;;176.20;123.38;;;;;;;21.82;56.68;102733.81;21246735;27;20240;-51
2023/12/15 23:43:51;;;;;;;174.30;118.50;;;;;;;21.77;56.63;102738.69;21249734;27;20305;-47
2023/12/15 23:53:55;;;;;;;155.00;107.95;;;;;;;21.72;56.63;102731.94;21258244;27;20244;-49
